»·PEaware :: N20957 KSBD-KEMT

N20957 :: KSBD-KEMT

FLIGHT INFORMATION

Flight Status: Arrived
Operator: Privately registered:
United States
More flights under this callsign
Pilot: Charles P. (32095)
Aircraft: CESSNA 172 SKYHAWK
(C172)
More flights by this aircraft type
Origin: KSBD San Bernardino Intl
United States
Destination: KEMT El Monte
United States
More flights between these airports :: More routes between these airports
Route:
File this flight plan on PilotEdge
Remarks: N / A
Altitude:
(Current/Filed)
4,500ft
Speed:
(Current/Filed)
124kts
Departed: 19-Feb-21 12:05 PM
Arrived: 19-Feb-21 12:32 PM
Distance/Time
Traveled:
6737nm/0:26
Distance/Time
To Go:
Arrived

Flight Plot

Page will automatically refresh every two minutes.


Map Options




Map Legend


Flown Route
Filed Route
Departure Airport
Arrival Airport
Navaid (VOR, NDB)
Fix

Horizontal Profiles

Position Reports

Time Latitude Longitude Heading Altitude Ground
Speed
19-Feb-21 11:36 34.101142 -117.227733 15 1145ft 0kts
19-Feb-21 11:37 34.101142 -117.227733 15 1145ft 0kts
19-Feb-21 11:38 34.101142 -117.227733 15 1145ft 0kts
19-Feb-21 11:39 34.101142 -117.227733 15 1145ft 0kts
19-Feb-21 11:40 34.101142 -117.227733 15 1145ft 0kts
19-Feb-21 11:41 34.101142 -117.227733 15 1145ft 0kts
19-Feb-21 11:42 34.101142 -117.227733 15 1145ft 0kts
19-Feb-21 11:43 34.101142 -117.227734 15 1145ft 0kts
19-Feb-21 11:44 34.100541 -117.227714 116 1144ft 6kts
19-Feb-21 11:45 34.099096 -117.228539 249 1141ft 11kts
19-Feb-21 11:46 34.097514 -117.233899 252 1131ft 21kts
19-Feb-21 11:47 34.095630 -117.240276 250 1111ft 19kts
19-Feb-21 11:48 34.093900 -117.246110 250 1099ft 14kts
19-Feb-21 11:49 34.092562 -117.250621 247 1089ft 12kts
19-Feb-21 11:50 34.091563 -117.250816 158 1086ft 0kts
19-Feb-21 11:51 34.091563 -117.250816 158 1086ft 0kts
19-Feb-21 11:52 34.091563 -117.250816 158 1086ft 0kts
19-Feb-21 11:53 34.091563 -117.250816 158 1086ft 0kts
19-Feb-21 11:54 34.091563 -117.250816 158 1086ft 0kts
19-Feb-21 11:55 34.091563 -117.250816 158 1086ft 0kts
19-Feb-21 11:56 34.091563 -117.250816 158 1086ft 0kts
19-Feb-21 11:57 34.091563 -117.250816 158 1086ft 0kts
19-Feb-21 11:58 34.091563 -117.250816 158 1086ft 0kts
19-Feb-21 11:59 34.091563 -117.250816 158 1086ft 0kts
19-Feb-21 12:00 34.091563 -117.250816 158 1086ft 0kts
19-Feb-21 12:01 34.091563 -117.250816 158 1086ft 0kts
19-Feb-21 12:02 34.091563 -117.250816 158 1086ft 0kts
19-Feb-21 12:03 34.091238 -117.250520 133 1086ft 8kts
19-Feb-21 12:04 34.091735 -117.247145 70 1094ft 53kts
19-Feb-21 12:05 34.100155 -117.219437 68 1579ft 99kts
19-Feb-21 12:06 34.099247 -117.189579 167 2126ft 108kts
19-Feb-21 12:07 34.081414 -117.211507 310 2626ft 107kts
19-Feb-21 12:08 34.093387 -117.242961 281 3124ft 106kts
19-Feb-21 12:09 34.096721 -117.278365 274 3621ft 105kts
19-Feb-21 12:10 34.098834 -117.313635 274 4123ft 104kts
19-Feb-21 12:11 34.100948 -117.349459 274 4471ft 115kts
19-Feb-21 12:12 34.095002 -117.388503 261 4498ft 124kts
19-Feb-21 12:13 34.093684 -117.430231 269 4499ft 125kts
19-Feb-21 12:14 34.093142 -117.472196 269 4499ft 125kts
19-Feb-21 12:15 34.092685 -117.513749 269 4499ft 125kts
19-Feb-21 12:16 34.092229 -117.555834 269 4499ft 125kts
19-Feb-21 12:17 34.091757 -117.597768 269 4500ft 125kts
19-Feb-21 12:18 34.091282 -117.639300 269 4500ft 125kts
19-Feb-21 12:19 34.090777 -117.681290 269 4499ft 125kts
19-Feb-21 12:20 34.090262 -117.723640 269 4269ft 134kts
19-Feb-21 12:21 34.089688 -117.768770 269 3773ft 136kts
19-Feb-21 12:22 34.089078 -117.816014 269 2871ft 143kts
19-Feb-21 12:23 34.088469 -117.861545 269 2519ft 128kts
19-Feb-21 12:24 34.087894 -117.903473 269 2231ft 120kts
19-Feb-21 12:25 34.087393 -117.938841 268 1399ft 93kts
19-Feb-21 12:26 34.093640 -117.960953 298 1269ft 73kts
19-Feb-21 12:27 34.093878 -117.981207 215 1172ft 59kts
19-Feb-21 12:28 34.083519 -117.995762 293 1356ft 64kts
19-Feb-21 12:29 34.097543 -118.010045 308 1318ft 73kts
19-Feb-21 12:30 34.094898 -118.029774 208 572ft 69kts
19-Feb-21 12:31 34.085421 -118.034656 97 293ft 0kts
19-Feb-21 12:32 34.085421 -118.034656 97 293ft 0kts
19-Feb-21 12:33 34.085425 -118.034614 74 292ft 4kts
19-Feb-21 12:34 34.086867 -118.032471 9 293ft 9kts
19-Feb-21 12:35 34.087372 -118.032790 300 294ft 0kts
19-Feb-21 12:36 34.087372 -118.032790 300 294ft 0kts
19-Feb-21 12:37 34.087372 -118.032790 300 294ft 0kts
19-Feb-21 12:38 34.087372 -118.032790 300 294ft 0kts
19-Feb-21 12:39 34.087372 -118.032790 300 294ft 0kts
19-Feb-21 12:40 0.000408 0.013975 0 3ft 0kts

Navigation Log

Ident Type
Flight plan parsing failed, navigation log unavailable